Kasagimaru — JJ3905 — position and weather

sailwx.info

Track history (hours):
 
Tides and Currents Weather Stations Pressure Air Temp Water Temp Dewpoint Dewpoint Depression Visibility Wind Speed Wind Dir Waves Ship Positions

Kasagimaru

Last reported at 2016-Jul-01 07:26 UTC. Time now 2016-Jul-02 04:02 UTC.
Position N 34°06' E 134°45'.

Length 42 m; draft 3.5 m.

Type: Tug. MMSI: 431300268.

Date/timePositionNaut miles runAvg speedWind from/ knotsBaromVisibWave heightAir tempDewpointWater temp
2016-Jul-01 07:26N 34°06' E 134°45'1412.5
2016-Jul-01 06:17N 34°14' E 134°59'811.5
2016-Jul-01 05:34N 34°20' E 135°06'1312.8
2016-Jul-01 04:33N 34°28' E 135°19'8 3.8
2016-Jul-01 02:33N 34°34' E 135°24'2 2.0
2016-Jul-01 01:33N 34°33' E 135°22'4 3.6
2016-Jul-01 00:33N 34°35' E 135°26'1 1.1
2016-Jun-30 23:33N 34°35' E 135°27'0 0.0
2016-Jun-30 22:32N 34°35' E 135°27'1 0.9
2016-Jun-30 21:33N 34°35' E 135°26'2 2.1
2016-Jun-30 20:33N 34°33' E 135°27'0 0.0
2016-Jun-30 08:05N 34°33' E 135°27'6 6.6
2016-Jun-30 07:15N 34°29' E 135°22'0 0.1
2016-Jun-30 06:33N 34°29' E 135°22'6 5.5
2016-Jun-30 05:33N 34°33' E 135°27'0 0.0
2016-Jun-30 04:34N 34°33' E 135°27'0 0.0
2016-Jun-30 03:33N 34°33' E 135°27'0 0.0
2016-Jun-30 02:33N 34°33' E 135°27'0 0.0
2016-Jun-30 01:34N 34°33' E 135°27'0 0.0
2016-Jun-30 00:33N 34°33' E 135°27'0 0.0
2016-Jun-29 23:34N 34°33' E 135°27'0 0.0
2016-Jun-29 22:33N 34°33' E 135°27'0 0.0
2016-Jun-29 21:33N 34°33' E 135°27'0 0.0
2016-Jun-29 20:33N 34°33' E 135°27'0 0.0
2016-Jun-29 19:33N 34°33' E 135°27'0 0.0
2016-Jun-29 18:33N 34°33' E 135°27'0 0.0
2016-Jun-29 17:33N 34°33' E 135°27'0 0.0
2016-Jun-29 16:33N 34°33' E 135°27'0 0.0
2016-Jun-29 15:33N 34°33' E 135°27'0 0.0
2016-Jun-29 14:33N 34°33' E 135°27'0 0.0
2016-Jun-29 13:33N 34°33' E 135°27'0 0.0
2016-Jun-29 12:33N 34°33' E 135°27'0 0.0
2016-Jun-29 11:34N 34°33' E 135°27'0 0.0
2016-Jun-29 10:33N 34°33' E 135°27'0 0.0
2016-Jun-29 09:34N 34°33' E 135°27'1 0.6
2016-Jun-29 08:33N 34°33' E 135°26'1 0.9
2016-Jun-29 07:30N 34°33' E 135°25'3 3.4
2016-Jun-29 06:33N 34°34' E 135°21'5 0.7
2016-Jun-28 23:12N 34°33' E 135°27'0 0.0
2016-Jun-28 21:17N 34°33' E 135°27'0 0.0
2016-Jun-28 16:23N 34°33' E 135°27'0 0.0
2016-Jun-28 15:30N 34°33' E 135°27'0 0.0
2016-Jun-28 14:30N 34°33' E 135°27'0 0.0
2016-Jun-28 12:28N 34°33' E 135°27'0 0.0
2016-Jun-28 10:33N 34°33' E 135°27'0 0.0
2016-Jun-28 09:26N 34°33' E 135°27'2 0.3
2016-Jun-28 03:27N 34°34' E 135°24'5 5.2
2016-Jun-28 02:30N 34°38' E 135°27'0 0.4
2016-Jun-28 01:33N 34°38' E 135°27'0 0.2
2016-Jun-28 00:33N 34°38' E 135°27'5 4.5
2016-Jun-27 23:27N 34°33' E 135°25'1 1.2
2016-Jun-27 22:33N 34°33' E 135°26'1 0.7
2016-Jun-27 21:32N 34°33' E 135°27'0 0.0
2016-Jun-27 20:32N 34°33' E 135°27'0 0.0
2016-Jun-27 14:31N 34°33' E 135°27'0 0.0
2016-Jun-27 12:29N 34°33' E 135°27'0 0.0
2016-Jun-27 11:32N 34°33' E 135°27'0 0.0
2016-Jun-27 10:25N 34°33' E 135°27'0 0.0
2016-Jun-27 05:33N 34°33' E 135°27'0 0.0
2016-Jun-27 04:33N 34°33' E 135°27'0 0.0
2016-Jun-27 03:29N 34°33' E 135°27'0 0.0
2016-Jun-27 02:33N 34°33' E 135°27'0 0.0
2016-Jun-27 01:33N 34°33' E 135°27'0 0.0
2016-Jun-26 23:33N 34°33' E 135°27'2 2.5
2016-Jun-26 22:34N 34°32' E 135°24'0 0.0
2016-Jun-26 21:32N 34°32' E 135°24'2 0.3
2016-Jun-26 14:16N 34°33' E 135°27'0 0.0
2016-Jun-26 13:33N 34°33' E 135°27'0 0.0
2016-Jun-26 12:32N 34°33' E 135°27'0 0.0
2016-Jun-26 11:28N 34°33' E 135°27'0 0.0
2016-Jun-26 10:06N 34°33' E 135°27'4 0.7
2016-Jun-26 04:33N 34°32' E 135°22'2612.3
2016-Jun-26 02:27N 34°15' E 134°59'  
2016-Jun-23 18:33N 34°37' E 135°01'7 6.9
2016-Jun-23 17:33N 34°33' E 135°07'1812.9
2016-Jun-23 16:11N 34°16' E 134°59'6 7.1
2016-Jun-23 15:25N 34°11' E 135°01'5 5.7
2016-Jun-23 14:34N 34°13' E 135°07'1 0.3
2016-Jun-23 12:33N 34°13' E 135°07'1310.0
2016-Jun-23 11:17N 34°25' E 135°01'912.5
2016-Jun-23 10:34N 34°33' E 135°06'9 0.2
2016-Jun-21 23:07N 34°37' E 134°57'611.4
2016-Jun-21 22:33N 34°36' E 135°05'5 5.3
2016-Jun-21 21:33N 34°31' E 135°07'1612.1
2016-Jun-21 20:14N 34°16' E 134°59'6 8.6
2016-Jun-21 19:33N 34°11' E 135°02'6 6.1
2016-Jun-21 18:33N 34°13' E 135°09'0 0.0
2016-Jun-21 17:33N 34°13' E 135°09'0 0.0
2016-Jun-21 16:33N 34°13' E 135°09'0 0.0
2016-Jun-21 15:33N 34°13' E 135°09'0 0.0
2016-Jun-21 14:33N 34°13' E 135°09'0 0.0
2016-Jun-21 13:33N 34°13' E 135°09'0 0.0
2016-Jun-21 12:33N 34°13' E 135°09'0 0.0
2016-Jun-21 11:33N 34°13' E 135°09'0 0.3
2016-Jun-21 10:33N 34°13' E 135°09'10 9.0
2016-Jun-21 09:24N 34°20' E 134°59'1113.2
2016-Jun-21 08:33N 34°30' E 135°05'  
Track history (hours):
 
Tides and Currents Weather Stations Pressure Air Temp Water Temp Dewpoint Dewpoint Depression Visibility Wind Speed Wind Dir Waves Ship Positions

Kasagimaru

Last reported at 2016-Jul-01 07:26 UTC. Time now 2016-Jul-02 04:02 UTC.
Position N 34°06' E 134°45'.

Length 42 m; draft 3.5 m.

Type: Tug. MMSI: 431300268.

Date/timePositionNaut miles runAvg speedWind from/ knotsBaromVisibWave heightAir tempDewpointWater temp
2016-Jul-01 07:26N 34°06' E 134°45'1412.5
2016-Jul-01 06:17N 34°14' E 134°59'811.5
2016-Jul-01 05:34N 34°20' E 135°06'1312.8
2016-Jul-01 04:33N 34°28' E 135°19'8 3.8
2016-Jul-01 02:33N 34°34' E 135°24'2 2.0
2016-Jul-01 01:33N 34°33' E 135°22'4 3.6
2016-Jul-01 00:33N 34°35' E 135°26'1 1.1
2016-Jun-30 23:33N 34°35' E 135°27'0 0.0
2016-Jun-30 22:32N 34°35' E 135°27'1 0.9
2016-Jun-30 21:33N 34°35' E 135°26'2 2.1
2016-Jun-30 20:33N 34°33' E 135°27'0 0.0
2016-Jun-30 08:05N 34°33' E 135°27'6 6.6
2016-Jun-30 07:15N 34°29' E 135°22'0 0.1
2016-Jun-30 06:33N 34°29' E 135°22'6 5.5
2016-Jun-30 05:33N 34°33' E 135°27'0 0.0
2016-Jun-30 04:34N 34°33' E 135°27'0 0.0
2016-Jun-30 03:33N 34°33' E 135°27'0 0.0
2016-Jun-30 02:33N 34°33' E 135°27'0 0.0
2016-Jun-30 01:34N 34°33' E 135°27'0 0.0
2016-Jun-30 00:33N 34°33' E 135°27'0 0.0
2016-Jun-29 23:34N 34°33' E 135°27'0 0.0
2016-Jun-29 22:33N 34°33' E 135°27'0 0.0
2016-Jun-29 21:33N 34°33' E 135°27'0 0.0
2016-Jun-29 20:33N 34°33' E 135°27'0 0.0
2016-Jun-29 19:33N 34°33' E 135°27'0 0.0
2016-Jun-29 18:33N 34°33' E 135°27'0 0.0
2016-Jun-29 17:33N 34°33' E 135°27'0 0.0
2016-Jun-29 16:33N 34°33' E 135°27'0 0.0
2016-Jun-29 15:33N 34°33' E 135°27'0 0.0
2016-Jun-29 14:33N 34°33' E 135°27'0 0.0
2016-Jun-29 13:33N 34°33' E 135°27'0 0.0
2016-Jun-29 12:33N 34°33' E 135°27'0 0.0
2016-Jun-29 11:34N 34°33' E 135°27'0 0.0
2016-Jun-29 10:33N 34°33' E 135°27'0 0.0
2016-Jun-29 09:34N 34°33' E 135°27'1 0.6
2016-Jun-29 08:33N 34°33' E 135°26'1 0.9
2016-Jun-29 07:30N 34°33' E 135°25'3 3.4
2016-Jun-29 06:33N 34°34' E 135°21'5 0.7
2016-Jun-28 23:12N 34°33' E 135°27'0 0.0
2016-Jun-28 21:17N 34°33' E 135°27'0 0.0
2016-Jun-28 16:23N 34°33' E 135°27'0 0.0
2016-Jun-28 15:30N 34°33' E 135°27'0 0.0
2016-Jun-28 14:30N 34°33' E 135°27'0 0.0
2016-Jun-28 12:28N 34°33' E 135°27'0 0.0
2016-Jun-28 10:33N 34°33' E 135°27'0 0.0
2016-Jun-28 09:26N 34°33' E 135°27'2 0.3
2016-Jun-28 03:27N 34°34' E 135°24'5 5.2
2016-Jun-28 02:30N 34°38' E 135°27'0 0.4
2016-Jun-28 01:33N 34°38' E 135°27'0 0.2
2016-Jun-28 00:33N 34°38' E 135°27'5 4.5
2016-Jun-27 23:27N 34°33' E 135°25'1 1.2
2016-Jun-27 22:33N 34°33' E 135°26'1 0.7
2016-Jun-27 21:32N 34°33' E 135°27'0 0.0
2016-Jun-27 20:32N 34°33' E 135°27'0 0.0
2016-Jun-27 14:31N 34°33' E 135°27'0 0.0
2016-Jun-27 12:29N 34°33' E 135°27'0 0.0
2016-Jun-27 11:32N 34°33' E 135°27'0 0.0
2016-Jun-27 10:25N 34°33' E 135°27'0 0.0
2016-Jun-27 05:33N 34°33' E 135°27'0 0.0
2016-Jun-27 04:33N 34°33' E 135°27'0 0.0
2016-Jun-27 03:29N 34°33' E 135°27'0 0.0
2016-Jun-27 02:33N 34°33' E 135°27'0 0.0
2016-Jun-27 01:33N 34°33' E 135°27'0 0.0
2016-Jun-26 23:33N 34°33' E 135°27'2 2.5
2016-Jun-26 22:34N 34°32' E 135°24'0 0.0
2016-Jun-26 21:32N 34°32' E 135°24'2 0.3
2016-Jun-26 14:16N 34°33' E 135°27'0 0.0
2016-Jun-26 13:33N 34°33' E 135°27'0 0.0
2016-Jun-26 12:32N 34°33' E 135°27'0 0.0
2016-Jun-26 11:28N 34°33' E 135°27'0 0.0
2016-Jun-26 10:06N 34°33' E 135°27'4 0.7
2016-Jun-26 04:33N 34°32' E 135°22'2612.3
2016-Jun-26 02:27N 34°15' E 134°59'  
2016-Jun-23 18:33N 34°37' E 135°01'7 6.9
2016-Jun-23 17:33N 34°33' E 135°07'1812.9
2016-Jun-23 16:11N 34°16' E 134°59'6 7.1
2016-Jun-23 15:25N 34°11' E 135°01'5 5.7
2016-Jun-23 14:34N 34°13' E 135°07'1 0.3
2016-Jun-23 12:33N 34°13' E 135°07'1310.0
2016-Jun-23 11:17N 34°25' E 135°01'912.5
2016-Jun-23 10:34N 34°33' E 135°06'9 0.2
2016-Jun-21 23:07N 34°37' E 134°57'611.4
2016-Jun-21 22:33N 34°36' E 135°05'5 5.3
2016-Jun-21 21:33N 34°31' E 135°07'1612.1
2016-Jun-21 20:14N 34°16' E 134°59'6 8.6
2016-Jun-21 19:33N 34°11' E 135°02'6 6.1
2016-Jun-21 18:33N 34°13' E 135°09'0 0.0
2016-Jun-21 17:33N 34°13' E 135°09'0 0.0
2016-Jun-21 16:33N 34°13' E 135°09'0 0.0
2016-Jun-21 15:33N 34°13' E 135°09'0 0.0
2016-Jun-21 14:33N 34°13' E 135°09'0 0.0
2016-Jun-21 13:33N 34°13' E 135°09'0 0.0
2016-Jun-21 12:33N 34°13' E 135°09'0 0.0
2016-Jun-21 11:33N 34°13' E 135°09'0 0.3
2016-Jun-21 10:33N 34°13' E 135°09'10 9.0
2016-Jun-21 09:24N 34°20' E 134°59'1113.2
2016-Jun-21 08:33N 34°30' E 135°05'  

Dump ship's entire track history